logo
Rechercher aéroport 
image banner adimage banner adimage banner ad
image banner ad

FAMU - Mkuzi

Situé à Pongola, South Africa

ICAO - FAMU, IATA - MZQ

Données fournies par Airmate  

Information générale

Coordonnées: S27°37'60" E32°3'0"
Élévation : 400 feet MSL.
 
Voir autres Aéroports à Kwazulu-Natal

Données opérationnelles

Special qualification required
Heure actuelle UTC:
Heure actuelle locale:
Météo à : - ( 0 km )
METAR: YPLM 171908Z AUTO 22013KT 9999 // BKN009 BKN042 20/19 Q1015
Voir NOTAMs / SUP AIP / TFR affectant cet aéroport [VIEW]
Fréquences de communication: [VIEW]

Pistes:

Identifiant RWYQFULongueur (ft)Largeur (ft)SurfaceLDA (ft)
17157°605998ASP
35337°605998ASP

Coordonnées de l'aéroport

Adresse: Pongola South Africa

Vue satellite de FAMU